createdAt,value
2019-04-14T00:00:51.447Z,3.00
2019-04-14T00:01:50.359Z,3.05
2019-04-14T00:02:51.175Z,3.02
2019-04-14T00:03:50.296Z,2.95
2019-04-14T00:04:50.743Z,3.00
2019-04-14T00:05:50.232Z,2.96
2019-04-14T00:06:50.509Z,2.89
2019-04-14T00:07:50.167Z,2.93
2019-04-14T00:08:50.270Z,2.93
2019-04-14T00:09:50.105Z,2.81
2019-04-14T00:10:50.792Z,2.87
2019-04-14T00:11:50.449Z,2.85
2019-04-14T00:12:51.304Z,2.79
2019-04-14T00:13:50.267Z,2.78
2019-04-14T00:14:51.206Z,2.77
2019-04-14T00:15:51.734Z,2.79
2019-04-14T00:16:50.944Z,2.72
2019-04-14T00:17:50.373Z,2.75
2019-04-14T00:18:49.815Z,2.72
2019-04-14T00:19:50.185Z,2.75
2019-04-14T00:20:49.754Z,2.75
2019-04-14T00:21:50.054Z,2.75
2019-04-14T00:22:49.688Z,2.71
2019-04-14T00:23:50.146Z,2.69
2019-04-14T00:24:49.623Z,2.75
2019-04-14T00:25:50.110Z,2.74
2019-04-14T00:26:49.559Z,2.69
2019-04-14T00:27:49.989Z,2.66
2019-04-14T00:28:49.500Z,2.67
2019-04-14T00:29:50.327Z,2.69
2019-04-14T00:30:49.431Z,2.71
2019-04-14T00:31:51.073Z,2.71
2019-04-14T00:32:49.367Z,2.77
2019-04-14T00:33:49.874Z,2.77
2019-04-14T00:34:50.685Z,2.77
2019-04-14T00:35:49.636Z,2.78
2019-04-14T00:36:50.216Z,2.74
2019-04-14T00:37:49.208Z,2.78
2019-04-14T00:38:49.975Z,2.69
2019-04-14T00:39:49.144Z,2.79
2019-04-14T00:40:49.751Z,2.75
2019-04-14T00:41:54.075Z,2.72
2019-04-14T00:42:49.517Z,2.71
2019-04-14T00:43:49.016Z,2.77
2019-04-14T00:44:49.602Z,2.74
2019-04-14T00:45:53.634Z,2.72
2019-04-14T00:46:49.606Z,2.69
2019-04-14T00:47:58.965Z,2.69
2019-04-14T00:48:49.676Z,2.69
2019-04-14T00:49:48.839Z,2.75
2019-04-14T00:50:49.600Z,2.66
2019-04-14T00:51:48.801Z,2.71
2019-04-14T00:52:48.728Z,2.77
2019-04-14T00:53:49.127Z,2.78
2019-04-14T00:54:49.960Z,2.71
2019-04-14T00:55:48.956Z,2.74
2019-04-14T00:56:49.812Z,2.75
2019-04-14T00:57:48.692Z,2.67
2019-04-14T00:58:49.622Z,2.72
2019-04-14T00:59:48.795Z,2.74
2019-04-14T01:00:50.096Z,2.72
2019-04-14T01:01:48.479Z,2.69
2019-04-14T01:02:49.389Z,2.71
2019-04-14T01:03:48.376Z,2.72
2019-04-14T01:04:49.140Z,2.74
2019-04-14T01:05:48.314Z,2.75
2019-04-14T01:06:49.017Z,2.69
2019-04-14T01:07:48.247Z,2.66
2019-04-14T01:08:48.982Z,2.67
2019-04-14T01:09:48.875Z,2.74
2019-04-14T01:10:48.156Z,2.71
2019-04-14T01:11:48.768Z,2.72
2019-04-14T01:12:48.093Z,2.69
2019-04-14T01:13:48.623Z,2.69
2019-04-14T01:14:48.024Z,2.75
2019-04-14T01:15:57.800Z,2.72
2019-04-14T01:16:47.964Z,2.67
2019-04-14T01:17:48.559Z,2.71
2019-04-14T01:18:47.899Z,2.71
2019-04-14T01:19:48.406Z,2.67
2019-04-14T01:20:47.832Z,2.67
2019-04-14T01:21:48.147Z,2.72
2019-04-14T01:22:48.819Z,2.71
2019-04-14T01:23:48.030Z,2.66
2019-04-14T01:24:48.906Z,2.74
2019-04-14T01:25:47.772Z,2.74
2019-04-14T01:26:48.497Z,2.66
2019-04-14T01:27:47.609Z,2.72
2019-04-14T01:28:48.283Z,2.69
2019-04-14T01:29:47.544Z,2.71
2019-04-14T01:30:48.032Z,2.66
2019-04-14T01:31:47.481Z,2.67
2019-04-14T01:32:47.961Z,2.71
2019-04-14T01:33:47.416Z,2.67
2019-04-14T01:34:47.660Z,2.67
2019-04-14T01:35:47.351Z,2.72
2019-04-14T01:36:47.555Z,2.71
2019-04-14T01:37:48.538Z,2.69
2019-04-14T01:38:47.259Z,2.67
2019-04-14T01:39:48.166Z,2.77
2019-04-14T01:40:47.193Z,2.74
2019-04-14T01:41:47.841Z,2.74
2019-04-14T01:42:48.395Z,2.72
2019-04-14T01:43:47.468Z,2.78
2019-04-14T01:44:48.093Z,2.69
2019-04-14T01:45:59.607Z,2.79
2019-04-14T01:46:47.801Z,2.78
2019-04-14T01:47:46.969Z,2.85
2019-04-14T01:48:47.543Z,2.79
2019-04-14T01:49:46.907Z,2.79
2019-04-14T01:50:47.412Z,2.82
2019-04-14T01:51:46.842Z,2.82
2019-04-14T01:52:47.753Z,2.79
2019-04-14T01:53:46.862Z,2.82
2019-04-14T01:54:47.320Z,2.75
2019-04-14T01:55:46.715Z,2.75
2019-04-14T01:56:47.149Z,2.72
2019-04-14T01:57:46.651Z,2.84
2019-04-14T01:58:46.897Z,2.81
2019-04-14T01:59:46.588Z,2.72
2019-04-14T02:00:46.717Z,2.78
2019-04-14T02:01:47.625Z,2.75
2019-04-14T02:02:46.576Z,2.74
2019-04-14T02:03:47.668Z,2.75
2019-04-14T02:04:46.488Z,2.75
2019-04-14T02:05:47.469Z,2.85
2019-04-14T02:06:46.366Z,2.77
2019-04-14T02:07:47.241Z,2.82
2019-04-14T02:08:46.308Z,2.79
2019-04-14T02:09:46.896Z,2.90
2019-04-14T02:10:46.239Z,2.89
2019-04-14T02:11:46.611Z,2.92
2019-04-14T02:12:47.350Z,2.87
2019-04-14T02:13:46.498Z,2.90
2019-04-14T02:14:47.321Z,2.89
2019-04-14T02:15:46.499Z,3.00
2019-04-14T02:16:52.146Z,3.00
2019-04-14T02:17:46.170Z,3.00
2019-04-14T02:18:47.138Z,3.08
2019-04-14T02:19:46.059Z,3.11
2019-04-14T02:20:46.826Z,3.11
2019-04-14T02:21:45.888Z,3.15
2019-04-14T02:22:46.347Z,3.11
2019-04-14T02:23:45.823Z,3.14
2019-04-14T02:24:46.067Z,3.23
2019-04-14T02:25:47.086Z,3.10
2019-04-14T02:26:45.973Z,3.15
2019-04-14T02:27:45.696Z,3.10
2019-04-14T02:28:46.184Z,3.08
2019-04-14T02:29:45.633Z,3.15
2019-04-14T02:30:52.377Z,3.18
2019-04-14T02:32:13.856Z,3.23
2019-04-14T02:33:13.584Z,3.20
2019-04-14T02:34:21.558Z,3.18
2019-04-14T02:35:13.366Z,3.26
2019-04-14T02:37:10.580Z,3.20
2019-04-14T02:39:14.031Z,3.23
2019-04-14T02:43:12.830Z,3.26
2019-04-14T02:44:15.820Z,3.26
2019-04-14T02:45:19.337Z,3.24
2019-04-14T02:46:12.222Z,3.20
2019-04-14T02:47:38.865Z,3.24
2019-04-14T02:48:41.937Z,3.24
2019-04-14T02:49:14.722Z,3.23
2019-04-14T02:51:15.930Z,3.33
2019-04-14T02:52:14.440Z,3.24
2019-04-14T02:53:17.535Z,3.29
2019-04-14T02:54:13.391Z,3.32
2019-04-14T02:55:21.229Z,3.36
2019-04-14T02:56:16.411Z,3.32
2019-04-14T02:57:26.763Z,3.39
2019-04-14T02:58:16.263Z,3.33
2019-04-14T02:59:11.745Z,3.33
2019-04-14T03:00:19.723Z,3.33
2019-04-14T03:01:21.575Z,3.33
2019-04-14T03:03:16.073Z,3.35
2019-04-14T03:04:03.793Z,3.39
2019-04-14T03:05:13.297Z,3.36
2019-04-14T03:07:15.170Z,3.39
2019-04-14T03:08:08.261Z,3.39
2019-04-14T03:10:17.942Z,3.45
2019-04-14T03:11:24.549Z,3.47
2019-04-14T03:12:09.134Z,3.43
2019-04-14T03:13:15.019Z,3.51
2019-04-14T03:14:15.213Z,3.47
2019-04-14T03:15:17.414Z,3.47
2019-04-14T03:16:15.561Z,3.43
2019-04-14T03:18:24.738Z,3.43
2019-04-14T03:19:09.446Z,3.43
2019-04-14T03:20:20.095Z,3.48
2019-04-14T03:21:15.435Z,3.50
2019-04-14T03:22:23.715Z,3.43
2019-04-14T03:24:08.757Z,3.52
2019-04-14T03:24:55.382Z,3.43
2019-04-14T03:26:09.640Z,3.50
2019-04-14T03:27:15.301Z,3.40
2019-04-14T03:28:12.627Z,3.55
2019-04-14T03:29:08.178Z,3.54
2019-04-14T03:30:17.371Z,3.47
2019-04-14T03:33:39.569Z,3.48
2019-04-14T03:34:30.111Z,3.47
2019-04-14T03:35:47.884Z,3.45
2019-04-14T03:36:58.634Z,3.43
2019-04-14T03:38:14.132Z,3.51
2019-04-14T03:39:09.803Z,3.55
2019-04-14T03:40:13.781Z,3.50
2019-04-14T03:41:20.494Z,3.42
2019-04-14T03:42:12.784Z,3.50
2019-04-14T03:43:18.705Z,3.50
2019-04-14T03:44:09.854Z,3.45
2019-04-14T03:45:16.702Z,3.48
2019-04-14T03:47:13.764Z,3.42
2019-04-14T03:48:44.335Z,3.45
2019-04-14T03:50:08.425Z,3.52
2019-04-14T03:51:09.728Z,3.55
2019-04-14T03:52:02.473Z,3.58
2019-04-14T03:53:16.282Z,3.58
2019-04-14T03:54:03.671Z,3.55
2019-04-14T03:54:58.220Z,3.58
2019-04-14T03:55:49.121Z,3.54
2019-04-14T03:56:42.861Z,3.58
2019-04-14T03:57:43.365Z,3.55
2019-04-14T03:58:42.786Z,3.52
2019-04-14T03:59:43.507Z,3.61
2019-04-14T04:00:42.724Z,3.52
2019-04-14T04:01:43.508Z,3.58
2019-04-14T04:02:42.661Z,3.58
2019-04-14T04:03:43.578Z,3.57
2019-04-14T04:04:42.596Z,3.47
2019-04-14T04:05:43.469Z,3.51
2019-04-14T04:06:42.534Z,3.50
2019-04-14T04:07:43.220Z,3.42
2019-04-14T04:08:42.468Z,3.47
2019-04-14T04:09:43.343Z,3.57
2019-04-14T04:10:42.404Z,3.54
2019-04-14T04:11:43.397Z,3.45
2019-04-14T04:12:42.342Z,3.45
2019-04-14T04:13:43.304Z,3.51
2019-04-14T04:14:42.279Z,3.45
2019-04-14T04:15:43.229Z,3.57
2019-04-14T04:16:42.216Z,3.55
2019-04-14T04:17:43.032Z,3.57
2019-04-14T04:18:50.932Z,3.55
2019-04-14T04:19:42.646Z,3.50
2019-04-14T04:20:42.088Z,3.57
2019-04-14T04:21:42.330Z,3.57
2019-04-14T04:22:43.324Z,3.57
2019-04-14T04:23:42.439Z,3.57
2019-04-14T04:24:43.061Z,3.60
2019-04-14T04:25:42.208Z,3.58
2019-04-14T04:26:42.944Z,3.62
2019-04-14T04:27:41.968Z,3.61
2019-04-14T04:28:42.847Z,3.66
2019-04-14T04:29:42.039Z,3.62
2019-04-14T04:30:42.682Z,3.73
2019-04-14T04:31:41.787Z,3.62
2019-04-14T04:32:42.587Z,3.78
2019-04-14T04:33:41.677Z,3.75
2019-04-14T04:34:42.363Z,3.69
2019-04-14T04:35:41.614Z,3.75
2019-04-14T04:36:42.039Z,3.75
2019-04-14T04:37:41.551Z,3.76
2019-04-14T04:38:42.054Z,3.78
2019-04-14T04:39:41.487Z,3.78
2019-04-14T04:40:41.876Z,3.80
2019-04-14T04:41:41.425Z,3.83
2019-04-14T04:42:41.667Z,3.80
2019-04-14T04:43:41.359Z,3.83
2019-04-14T04:44:42.137Z,3.83
2019-04-14T04:45:41.296Z,3.84
2019-04-14T04:46:41.578Z,3.80
2019-04-14T04:47:41.233Z,3.86
2019-04-14T04:48:41.502Z,3.88
2019-04-14T04:49:42.503Z,3.84
2019-04-14T04:50:41.140Z,3.83
2019-04-14T04:51:42.055Z,3.84
2019-04-14T04:52:41.077Z,3.86
2019-04-14T04:53:41.975Z,3.80
2019-04-14T04:54:41.011Z,3.83
2019-04-14T04:55:41.675Z,3.86
2019-04-14T04:56:40.949Z,3.98
2019-04-14T04:57:41.600Z,3.96
2019-04-14T04:58:41.335Z,3.97
2019-04-14T04:59:40.996Z,3.97
2019-04-14T05:00:41.681Z,4.04
2019-04-14T05:01:40.828Z,4.09
2019-04-14T05:02:41.805Z,4.00
2019-04-14T05:03:40.791Z,4.09
2019-04-14T05:04:41.595Z,4.05
2019-04-14T05:05:40.665Z,4.02
2019-04-14T05:06:41.631Z,4.12
2019-04-14T05:07:40.613Z,4.02
2019-04-14T05:08:41.306Z,4.05
2019-04-14T05:09:40.631Z,4.04
2019-04-14T05:10:41.386Z,4.11
2019-04-14T05:11:40.483Z,4.05
2019-04-14T05:12:41.352Z,4.11
2019-04-14T05:13:40.414Z,4.20
2019-04-14T05:14:41.224Z,4.20
2019-04-14T05:15:40.476Z,4.11
2019-04-14T05:16:40.321Z,4.06
2019-04-14T05:17:40.954Z,4.09
2019-04-14T05:18:40.260Z,4.08
2019-04-14T05:19:41.685Z,4.14
2019-04-14T05:20:40.194Z,4.16
2019-04-14T05:21:40.931Z,4.23
2019-04-14T05:22:40.135Z,4.11
2019-04-14T05:23:41.017Z,4.11
2019-04-14T05:24:40.070Z,4.11
2019-04-14T05:25:40.794Z,4.20
2019-04-14T05:26:40.006Z,4.24
2019-04-14T05:27:40.906Z,4.26
2019-04-14T05:28:39.945Z,4.26
2019-04-14T05:29:40.769Z,4.24
2019-04-14T05:30:39.893Z,4.30
2019-04-14T05:31:40.421Z,4.33
2019-04-14T05:32:39.827Z,4.36
2019-04-14T05:33:40.433Z,4.34
2019-04-14T05:34:39.758Z,4.42
2019-04-14T05:35:40.141Z,4.44
2019-04-14T05:36:39.693Z,4.47
2019-04-14T05:37:40.066Z,4.44
2019-04-14T05:38:40.675Z,4.54
2019-04-14T05:39:39.704Z,4.59
2019-04-14T05:40:40.732Z,4.60
2019-04-14T05:41:43.466Z,4.55
2019-04-14T05:42:40.733Z,4.54
2019-04-14T05:43:47.102Z,4.58
2019-04-14T05:44:40.392Z,4.65
2019-04-14T05:45:39.597Z,4.52
2019-04-14T05:46:40.310Z,4.54
2019-04-14T05:47:39.433Z,4.66
2019-04-14T05:48:40.348Z,4.54
2019-04-14T05:49:45.472Z,4.66
2019-04-14T05:50:40.066Z,4.55
2019-04-14T05:51:39.435Z,4.59
2019-04-14T05:52:40.373Z,4.55
2019-04-14T05:53:39.455Z,4.58
2019-04-14T05:54:40.342Z,4.62
2019-04-14T05:55:39.537Z,4.52
2019-04-14T05:56:39.531Z,4.54
2019-04-14T05:57:39.493Z,4.62
2019-04-14T05:58:39.011Z,4.63
2019-04-14T05:59:39.614Z,4.54
2019-04-14T06:00:38.948Z,4.66
2019-04-14T06:01:39.253Z,4.63
2019-04-14T06:02:39.883Z,4.65
2019-04-14T06:03:38.854Z,4.72
2019-04-14T06:04:39.626Z,4.63
2019-04-14T06:05:38.792Z,4.70
2019-04-14T06:06:38.762Z,4.69
2019-04-14T06:07:38.731Z,4.72
2019-04-14T06:08:38.706Z,4.69
2019-04-14T06:09:38.673Z,4.69
2019-04-14T06:10:38.640Z,4.78
2019-04-14T06:11:38.606Z,4.80
2019-04-14T06:12:38.575Z,4.63
2019-04-14T06:13:38.544Z,4.82
2019-04-14T06:14:38.515Z,4.80
2019-04-14T06:15:38.483Z,4.85
2019-04-14T06:16:38.450Z,4.86
2019-04-14T06:17:38.420Z,4.88
2019-04-14T06:18:38.390Z,4.80
2019-04-14T06:19:40.642Z,4.91
2019-04-14T06:20:38.326Z,4.94
2019-04-14T06:21:38.294Z,5.04
2019-04-14T06:22:38.265Z,5.04
2019-04-14T06:23:38.233Z,5.04
2019-04-14T06:24:38.201Z,5.04
2019-04-14T06:25:38.172Z,5.15
2019-04-14T06:26:38.141Z,5.18
2019-04-14T06:27:38.110Z,5.22
2019-04-14T06:28:38.079Z,5.13
2019-04-14T06:29:38.046Z,5.21
2019-04-14T06:30:38.022Z,5.27
2019-04-14T06:31:37.985Z,5.25
2019-04-14T06:32:37.981Z,5.33
2019-04-14T06:33:37.925Z,5.45
2019-04-14T06:34:37.893Z,5.42
2019-04-14T06:35:37.862Z,5.33
2019-04-14T06:36:37.832Z,5.43
2019-04-14T06:37:37.801Z,5.46
2019-04-14T06:38:37.770Z,5.43
2019-04-14T06:39:37.744Z,5.40
2019-04-14T06:40:37.708Z,5.35
2019-04-14T06:41:37.679Z,5.43
2019-04-14T06:42:37.647Z,5.33
2019-04-14T06:43:48.286Z,5.33
2019-04-14T06:44:37.587Z,5.40
2019-04-14T06:45:37.553Z,5.45
2019-04-14T06:46:37.523Z,5.45
2019-04-14T06:47:37.500Z,5.42
2019-04-14T06:48:37.463Z,5.46
2019-04-14T06:49:48.423Z,5.45
2019-04-14T06:50:37.402Z,5.46
2019-04-14T06:51:37.371Z,5.43
2019-04-14T06:52:37.340Z,5.53
2019-04-14T06:53:37.310Z,5.64
2019-04-14T06:54:37.279Z,5.53
2019-04-14T06:55:37.248Z,5.58
2019-04-14T06:56:37.215Z,5.54
2019-04-14T06:57:37.188Z,5.64
2019-04-14T06:58:37.159Z,5.64
2019-04-14T06:59:37.128Z,5.72
2019-04-14T07:00:37.094Z,5.72
2019-04-14T07:01:39.040Z,5.75
2019-04-14T07:02:37.036Z,5.72
2019-04-14T07:03:37.000Z,5.65
2019-04-14T07:04:36.972Z,5.76
2019-04-14T07:05:36.942Z,5.71
2019-04-14T07:06:36.909Z,5.71
2019-04-14T07:07:36.880Z,5.74
2019-04-14T07:08:36.850Z,5.74
2019-04-14T07:09:36.819Z,5.68
2019-04-14T07:10:36.790Z,5.71
2019-04-14T07:11:36.759Z,5.75
2019-04-14T07:12:36.725Z,5.71
2019-04-14T07:13:36.695Z,5.76
2019-04-14T07:14:36.669Z,5.76
2019-04-14T07:15:36.634Z,5.74
2019-04-14T07:16:36.603Z,5.76
2019-04-14T07:17:36.576Z,5.83
2019-04-14T07:18:36.564Z,5.91
2019-04-14T07:19:36.513Z,5.99
2019-04-14T07:20:36.481Z,6.03
2019-04-14T07:21:36.452Z,6.00
2019-04-14T07:22:36.421Z,6.06
2019-04-14T07:23:36.390Z,6.22
2019-04-14T07:24:36.360Z,6.17
2019-04-14T07:25:36.329Z,6.19
2019-04-14T07:26:36.301Z,6.19
2019-04-14T07:27:36.298Z,6.17
2019-04-14T07:28:36.239Z,6.14
2019-04-14T07:29:36.209Z,6.21
2019-04-14T07:30:36.181Z,6.25
2019-04-14T07:31:36.149Z,6.19
2019-04-14T07:32:36.120Z,6.19
2019-04-14T07:33:36.090Z,6.09
2019-04-14T07:34:36.374Z,6.11
2019-04-14T07:35:36.028Z,6.14
2019-04-14T07:36:36.001Z,6.21
2019-04-14T07:37:35.969Z,6.27
2019-04-14T07:38:35.940Z,6.40
2019-04-14T07:39:35.907Z,6.27
2019-04-14T07:40:35.881Z,6.40
2019-04-14T07:41:35.849Z,6.46
2019-04-14T07:42:35.819Z,6.54
2019-04-14T07:43:35.791Z,6.66
2019-04-14T07:44:35.757Z,6.58
2019-04-14T07:45:35.730Z,6.81
2019-04-14T07:46:35.698Z,6.84
2019-04-14T07:47:35.669Z,6.95
2019-04-14T07:48:35.639Z,6.95
2019-04-14T07:49:35.615Z,6.91
2019-04-14T07:50:35.579Z,6.97
2019-04-14T07:51:35.549Z,6.99
2019-04-14T07:52:35.521Z,6.84
2019-04-14T07:53:35.494Z,6.84
2019-04-14T07:54:35.465Z,6.88
2019-04-14T07:55:35.431Z,6.74
2019-04-14T07:56:35.410Z,6.79
2019-04-14T07:57:35.375Z,6.88
2019-04-14T07:58:35.345Z,6.81
2019-04-14T07:59:35.315Z,6.55
2019-04-14T08:00:35.288Z,6.62
2019-04-14T08:01:35.256Z,6.70
2019-04-14T08:02:35.236Z,6.77
2019-04-14T08:03:35.196Z,6.80
2019-04-14T08:04:35.171Z,6.61
2019-04-14T08:05:35.138Z,6.76
2019-04-14T08:06:35.111Z,6.85
2019-04-14T08:07:35.081Z,6.81
2019-04-14T08:08:35.050Z,6.98
2019-04-14T08:09:35.024Z,6.89
2019-04-14T08:10:34.993Z,6.92
2019-04-14T08:11:34.961Z,6.81
2019-04-14T08:12:35.285Z,6.71
2019-04-14T08:13:34.904Z,6.67
2019-04-14T08:14:34.876Z,6.66
2019-04-14T08:15:34.846Z,6.56
2019-04-14T08:16:34.815Z,6.59
2019-04-14T08:17:34.787Z,6.76
2019-04-14T08:18:34.758Z,6.79
2019-04-14T08:19:34.726Z,6.77
2019-04-14T08:20:34.698Z,6.95
2019-04-14T08:21:34.669Z,6.87
2019-04-14T08:22:34.642Z,6.87
2019-04-14T08:23:34.612Z,6.81
2019-04-14T08:24:34.581Z,6.88
2019-04-14T08:25:34.551Z,6.89
2019-04-14T08:26:34.524Z,6.91
2019-04-14T08:27:34.493Z,6.89
2019-04-14T08:28:34.463Z,6.98
2019-04-14T08:29:34.439Z,6.77
2019-04-14T08:30:34.405Z,6.91
2019-04-14T08:31:34.374Z,6.91
2019-04-14T08:32:34.356Z,6.91
2019-04-14T08:33:34.318Z,6.76
2019-04-14T08:34:34.287Z,6.69
2019-04-14T08:35:34.259Z,6.56
2019-04-14T08:36:34.229Z,6.56
2019-04-14T08:37:34.198Z,6.38
2019-04-14T08:38:34.170Z,6.44
2019-04-14T08:39:34.141Z,6.25
2019-04-14T08:40:34.111Z,6.30
2019-04-14T08:41:34.081Z,6.49
2019-04-14T08:42:34.054Z,6.59
2019-04-14T08:43:34.033Z,6.58
2019-04-14T08:44:33.991Z,6.54
2019-04-14T08:45:33.962Z,6.62
2019-04-14T08:46:33.933Z,6.62
2019-04-14T08:47:33.906Z,6.64
2019-04-14T08:48:33.875Z,6.67
2019-04-14T08:49:33.845Z,6.55
2019-04-14T08:50:39.378Z,6.43
2019-04-14T08:51:33.784Z,6.37
2019-04-14T08:52:33.756Z,6.44
2019-04-14T08:53:33.726Z,6.52
2019-04-14T08:54:33.696Z,6.44
2019-04-14T08:55:33.666Z,6.28
2019-04-14T08:56:33.636Z,6.31
2019-04-14T08:57:33.642Z,6.03
2019-04-14T08:58:33.578Z,6.06
2019-04-14T08:59:33.546Z,6.09
2019-04-14T09:00:33.517Z,6.15
2019-04-14T09:01:33.488Z,6.17
2019-04-14T09:02:33.458Z,6.06
2019-04-14T09:03:33.425Z,5.99
2019-04-14T09:04:33.395Z,5.93
2019-04-14T09:05:33.365Z,5.91
2019-04-14T09:06:33.335Z,5.91
2019-04-14T09:07:33.307Z,5.89
2019-04-14T09:08:33.274Z,5.85
2019-04-14T09:09:33.245Z,5.85
2019-04-14T09:10:33.216Z,5.82
2019-04-14T09:11:33.183Z,5.89
2019-04-14T09:12:33.193Z,5.93
2019-04-14T09:13:33.124Z,6.00
2019-04-14T09:14:33.094Z,6.00
2019-04-14T09:15:33.064Z,5.91
2019-04-14T09:16:33.033Z,5.86
2019-04-14T09:17:33.003Z,5.86
2019-04-14T09:18:32.974Z,6.00
2019-04-14T09:19:32.941Z,5.97
2019-04-14T09:20:32.912Z,5.93
2019-04-14T09:21:32.880Z,5.96
2019-04-14T09:22:32.851Z,5.83
2019-04-14T09:23:32.819Z,5.89
2019-04-14T09:24:32.790Z,5.91
2019-04-14T09:25:32.761Z,5.90
2019-04-14T09:26:32.730Z,5.91
2019-04-14T09:27:32.697Z,5.85
2019-04-14T09:28:32.668Z,5.81
2019-04-14T09:29:32.637Z,5.65
2019-04-14T09:30:32.613Z,5.68
2019-04-14T09:31:32.576Z,5.74
2019-04-14T09:32:32.545Z,5.76
2019-04-14T09:33:32.516Z,5.71
2019-04-14T09:34:32.487Z,5.68
2019-04-14T09:35:32.454Z,5.81
2019-04-14T09:36:32.423Z,5.76
2019-04-14T09:37:32.393Z,5.79
2019-04-14T09:38:32.383Z,5.89
2019-04-14T09:39:32.333Z,5.91
2019-04-14T09:40:32.301Z,5.94
2019-04-14T09:41:32.272Z,5.89
2019-04-14T09:42:32.242Z,5.91
2019-04-14T09:43:32.210Z,5.99
2019-04-14T09:44:32.181Z,5.97
2019-04-14T09:45:32.149Z,5.90
2019-04-14T09:46:32.120Z,5.91
2019-04-14T09:47:32.102Z,5.94
2019-04-14T09:48:32.060Z,5.96
2019-04-14T09:49:32.033Z,6.01
2019-04-14T09:50:31.998Z,5.93
2019-04-14T09:51:31.971Z,5.97
2019-04-14T09:52:31.974Z,5.89
2019-04-14T09:53:31.910Z,5.91
2019-04-14T09:54:31.878Z,5.97
2019-04-14T09:55:31.846Z,5.99
2019-04-14T09:56:31.818Z,5.93
2019-04-14T09:57:31.786Z,5.99
2019-04-14T09:58:31.759Z,6.00
2019-04-14T09:59:31.724Z,6.01
2019-04-14T10:00:31.694Z,6.06
2019-04-14T10:01:31.662Z,6.00
2019-04-14T10:02:31.636Z,6.08
2019-04-14T10:03:31.602Z,6.04
2019-04-14T10:04:31.572Z,6.01
2019-04-14T10:05:31.544Z,6.08
2019-04-14T10:06:31.509Z,6.06
2019-04-14T10:07:31.481Z,6.12
2019-04-14T10:08:31.451Z,6.00
2019-04-14T10:09:31.422Z,6.04
2019-04-14T10:10:31.390Z,6.04
2019-04-14T10:11:31.360Z,6.06
2019-04-14T10:12:31.329Z,6.01
2019-04-14T10:13:31.301Z,6.01
2019-04-14T10:14:31.267Z,5.97
2019-04-14T10:15:31.239Z,6.09
2019-04-14T10:16:31.210Z,6.01
2019-04-14T10:17:31.178Z,6.04
2019-04-14T10:18:31.148Z,5.97
2019-04-14T10:19:31.115Z,6.01
2019-04-14T10:20:31.090Z,5.93
2019-04-14T10:21:31.057Z,6.01
2019-04-14T10:22:34.134Z,5.93
2019-04-14T10:23:30.996Z,5.94
2019-04-14T10:24:30.967Z,5.93
2019-04-14T10:25:30.936Z,6.01
2019-04-14T10:26:30.906Z,6.04
2019-04-14T10:27:30.873Z,6.00
2019-04-14T10:28:30.846Z,6.09
2019-04-14T10:29:30.814Z,5.99
2019-04-14T10:30:30.782Z,5.97
2019-04-14T10:31:30.753Z,6.11
2019-04-14T10:32:30.726Z,6.06
2019-04-14T10:33:30.690Z,6.12
2019-04-14T10:34:30.661Z,6.18
2019-04-14T10:35:30.630Z,6.21
2019-04-14T10:36:30.601Z,6.27
2019-04-14T10:37:30.570Z,6.30
2019-04-14T10:38:30.539Z,6.41
2019-04-14T10:39:30.509Z,6.33
2019-04-14T10:40:30.480Z,6.27
2019-04-14T10:41:30.448Z,6.43
2019-04-14T10:42:30.420Z,6.44
2019-04-14T10:43:30.388Z,6.27
2019-04-14T10:44:30.359Z,6.30
2019-04-14T10:45:30.328Z,6.22
2019-04-14T10:46:30.297Z,6.31
2019-04-14T10:47:30.319Z,6.28
2019-04-14T10:48:30.239Z,6.17
2019-04-14T10:49:30.205Z,6.22
2019-04-14T10:50:31.316Z,6.27
2019-04-14T10:51:33.857Z,6.25
2019-04-14T10:52:30.120Z,6.37
2019-04-14T10:53:30.086Z,6.43
2019-04-14T10:54:30.059Z,6.40
2019-04-14T10:55:30.025Z,6.41
2019-04-14T10:56:29.994Z,6.48
2019-04-14T10:57:29.973Z,6.41
2019-04-14T10:58:29.934Z,6.46
2019-04-14T10:59:29.904Z,6.46
2019-04-14T11:00:29.873Z,6.41
2019-04-14T11:01:29.846Z,6.38
2019-04-14T11:02:29.813Z,6.41
2019-04-14T11:03:29.782Z,6.51
2019-04-14T11:04:29.753Z,6.58
2019-04-14T11:05:29.723Z,6.66
2019-04-14T11:06:29.753Z,6.62
2019-04-14T11:07:29.662Z,6.59
2019-04-14T11:08:29.632Z,6.74
2019-04-14T11:09:29.603Z,6.76
2019-04-14T11:10:29.576Z,6.81
2019-04-14T11:11:29.544Z,6.94
2019-04-14T11:12:29.513Z,6.98
2019-04-14T11:13:29.484Z,6.95
2019-04-14T11:14:29.456Z,7.13
2019-04-14T11:15:29.425Z,7.16
2019-04-14T11:16:29.395Z,7.13
2019-04-14T11:17:29.367Z,7.13
2019-04-14T11:18:29.336Z,7.15
2019-04-14T11:19:29.307Z,7.27
2019-04-14T11:20:29.276Z,7.23
2019-04-14T11:21:41.669Z,7.25
2019-04-14T11:22:29.221Z,7.24
2019-04-14T11:23:29.190Z,7.28
2019-04-14T11:24:29.159Z,7.37
2019-04-14T11:25:29.129Z,7.39
2019-04-14T11:26:29.102Z,7.39
2019-04-14T11:27:29.072Z,7.27
2019-04-14T11:28:29.044Z,7.21
2019-04-14T11:29:29.013Z,7.12
2019-04-14T11:30:28.986Z,7.13
2019-04-14T11:31:28.955Z,7.16
2019-04-14T11:32:28.932Z,7.13
2019-04-14T11:33:28.898Z,7.05
2019-04-14T11:34:28.869Z,7.16
2019-04-14T11:35:28.846Z,7.15
2019-04-14T11:36:28.812Z,7.20
2019-04-14T11:37:28.784Z,7.15
2019-04-14T11:38:28.752Z,7.13
2019-04-14T11:39:28.723Z,7.17
2019-04-14T11:40:28.693Z,7.09
2019-04-14T11:41:28.664Z,7.13
2019-04-14T11:42:28.637Z,7.16
2019-04-14T11:43:28.606Z,7.05
2019-04-14T11:44:28.579Z,7.25
2019-04-14T11:45:28.549Z,7.30
2019-04-14T11:46:28.522Z,7.30
2019-04-14T11:47:28.496Z,7.30
2019-04-14T11:48:28.476Z,7.40
2019-04-14T11:49:28.434Z,7.34
2019-04-14T11:50:28.404Z,7.30
2019-04-14T11:51:28.380Z,7.34
2019-04-14T11:52:28.345Z,7.42
2019-04-14T11:53:28.319Z,7.42
2019-04-14T11:54:28.290Z,7.48
2019-04-14T11:55:28.259Z,7.52
2019-04-14T11:56:28.231Z,7.52
2019-04-14T11:57:28.203Z,7.55
2019-04-14T11:58:29.344Z,7.53
2019-04-14T11:59:28.143Z,7.57
2019-04-14T12:00:28.125Z,7.63
2019-04-14T12:01:28.088Z,7.69
2019-04-14T12:02:28.074Z,7.67
2019-04-14T12:03:28.031Z,7.64
2019-04-14T12:04:28.001Z,7.60
2019-04-14T12:05:27.972Z,7.55
2019-04-14T12:06:27.945Z,7.53
2019-04-14T12:07:27.915Z,7.43
2019-04-14T12:08:27.886Z,7.57
2019-04-14T12:09:27.860Z,7.57
2019-04-14T12:10:27.831Z,7.49
2019-04-14T12:11:27.799Z,7.53
2019-04-14T12:12:27.771Z,7.50
2019-04-14T12:13:27.742Z,7.55
2019-04-14T12:14:27.714Z,7.50
2019-04-14T12:15:27.685Z,7.45
2019-04-14T12:16:27.658Z,7.46
2019-04-14T12:17:27.629Z,7.49
2019-04-14T12:18:27.602Z,7.46
2019-04-14T12:19:27.570Z,7.45
2019-04-14T12:20:27.542Z,7.49
2019-04-14T12:21:27.512Z,7.48
2019-04-14T12:22:27.485Z,7.53
2019-04-14T12:23:27.457Z,7.57
2019-04-14T12:24:27.434Z,7.48
2019-04-14T12:25:27.397Z,7.49
2019-04-14T12:26:27.368Z,7.49
2019-04-14T12:27:27.339Z,7.55
2019-04-14T12:28:28.402Z,7.52
2019-04-14T12:29:28.230Z,7.63
2019-04-14T12:30:27.252Z,7.63
2019-04-14T12:31:27.224Z,7.77
2019-04-14T12:32:27.194Z,7.64
2019-04-14T12:33:27.168Z,7.82
2019-04-14T12:34:27.137Z,7.77
2019-04-14T12:35:27.107Z,7.77
2019-04-14T12:36:27.081Z,7.82
2019-04-14T12:37:27.052Z,7.80
2019-04-14T12:38:27.023Z,7.80
2019-04-14T12:39:26.994Z,7.83
2019-04-14T12:40:26.964Z,7.77
2019-04-14T12:41:26.935Z,7.82
2019-04-14T12:42:26.908Z,7.85
2019-04-14T12:43:26.879Z,7.83
2019-04-14T12:44:26.849Z,7.82
2019-04-14T12:45:26.820Z,7.80
2019-04-14T12:46:26.792Z,7.92
2019-04-14T12:47:26.763Z,7.85
2019-04-14T12:48:26.739Z,7.86
2019-04-14T12:49:26.705Z,7.77
2019-04-14T12:50:26.675Z,7.93
2019-04-14T12:51:26.649Z,7.90
2019-04-14T12:52:26.621Z,7.89
2019-04-14T12:53:26.591Z,7.98
2019-04-14T12:54:26.562Z,8.02
2019-04-14T12:55:26.535Z,8.18
2019-04-14T12:56:26.504Z,8.16
2019-04-14T12:57:26.477Z,8.11
2019-04-14T12:58:26.447Z,8.16
2019-04-14T12:59:26.418Z,8.05
2019-04-14T13:00:26.400Z,8.02
2019-04-14T13:01:26.362Z,7.89
2019-04-14T13:02:26.376Z,7.90
2019-04-14T13:03:26.306Z,7.89
2019-04-14T13:04:26.274Z,7.87
2019-04-14T13:05:26.245Z,7.86
2019-04-14T13:06:26.218Z,7.89
2019-04-14T13:07:26.186Z,7.97
2019-04-14T13:08:26.162Z,7.87
2019-04-14T13:09:26.133Z,7.82
2019-04-14T13:10:26.101Z,8.04
2019-04-14T13:11:26.072Z,7.90
2019-04-14T13:12:26.043Z,7.89
2019-04-14T13:13:26.015Z,8.02
2019-04-14T13:14:26.006Z,8.07
2019-04-14T13:15:25.957Z,8.12
2019-04-14T13:16:25.927Z,8.19
2019-04-14T13:17:25.902Z,8.22
2019-04-14T13:18:25.888Z,8.38
2019-04-14T13:19:25.842Z,8.45
2019-04-14T13:20:25.812Z,8.45
2019-04-14T13:21:25.786Z,8.41
2019-04-14T13:22:33.835Z,8.50
2019-04-14T13:23:25.726Z,8.62
2019-04-14T13:24:25.701Z,8.59
2019-04-14T13:25:25.668Z,8.83
2019-04-14T13:26:25.646Z,8.80
2019-04-14T13:27:25.612Z,8.84
2019-04-14T13:28:25.584Z,9.01
2019-04-14T13:29:25.578Z,9.05
2019-04-14T13:30:25.529Z,9.05
2019-04-14T13:31:25.501Z,9.05
2019-04-14T13:32:35.405Z,9.10
2019-04-14T13:33:25.445Z,9.14
2019-04-14T13:34:25.443Z,9.29